Time;durP1;ratioP1;P1;durP2;ratioP2;P2;SDS_P1;SDS_P2;PMS_P1;PMS_P2;Temp;Humidity;BMP_temperature;BMP_pressure;BME280_temperature;BME280_humidity;BME280_pressure;Samples;Min_cycle;Max_cycle;Signal;HPM_P1;HPM_P2
2022/09/27 00:01:52;;;;;;;36.65;27.33;;;10.60;99.90;;;;;;6286193;22;20523;-91
2022/09/27 00:04:26;;;;;;;43.63;31.23;;;10.70;99.90;;;;;;6260296;22;20236;-91
2022/09/27 00:06:53;;;;;;;38.78;26.83;;;10.70;99.90;;;;;;6282921;22;20235;-91
2022/09/27 00:09:23;;;;;;;36.00;26.85;;;10.90;99.90;;;;;;6285301;22;20189;-89
2022/09/27 00:11:50;;;;;;;32.03;25.77;;;11.00;99.90;;;;;;6291513;22;20186;-90
2022/09/27 00:14:17;;;;;;;32.42;24.77;;;10.80;99.90;;;;;;6289589;22;20189;-87
2022/09/27 00:16:45;;;;;;;28.88;22.98;;;10.80;99.90;;;;;;6290323;22;20190;-85
2022/09/27 00:19:15;;;;;;;34.33;22.42;;;10.80;99.90;;;;;;6289478;22;20205;-90
2022/09/27 00:21:45;;;;;;;35.75;26.95;;;10.80;99.90;;;;;;6288455;22;20182;-87
2022/09/27 00:24:18;;;;;;;29.08;22.55;;;10.70;99.90;;;;;;6293780;22;20219;-85
2022/09/27 00:26:46;;;;;;;30.02;22.50;;;10.60;99.90;;;;;;6303071;22;20196;-91
2022/09/27 00:29:16;;;;;;;26.73;22.63;;;10.70;99.90;;;;;;6280873;22;20209;-90
2022/09/27 00:31:44;;;;;;;32.03;21.75;;;10.70;99.90;;;;;;6302536;22;20283;-90
2022/09/27 00:34:21;;;;;;;25.42;20.45;;;11.00;99.90;;;;;;6299946;22;20177;-90
2022/09/27 00:36:50;;;;;;;25.30;21.95;;;11.00;99.90;;;;;;6294603;22;20184;-90
2022/09/27 00:39:20;;;;;;;24.45;20.25;;;10.90;99.90;;;;;;6285377;22;20205;-90
2022/09/27 00:41:48;;;;;;;26.25;21.52;;;10.60;99.90;;;;;;6258316;22;20190;-89
2022/09/27 00:44:32;;;;;;;25.95;20.90;;;10.50;99.90;;;;;;6284549;22;20261;-90
2022/09/27 00:47:02;;;;;;;24.95;21.63;;;10.70;99.90;;;;;;6283378;22;20249;-90
2022/09/27 00:49:35;;;;;;;25.25;21.17;;;10.50;99.90;;;;;;6257221;22;20180;-90
2022/09/27 00:52:08;;;;;;;28.52;22.17;;;10.50;99.90;;;;;;6283589;22;20181;-90
2022/09/27 00:54:42;;;;;;;28.80;23.10;;;10.50;99.90;;;;;;6285109;22;20184;-92
2022/09/27 00:57:10;;;;;;;29.65;22.35;;;10.40;99.90;;;;;;6287006;22;20492;-91
2022/09/27 01:00:07;;;;;;;25.77;21.45;;;10.40;99.90;;;;;;6300405;22;20223;-90
2022/09/27 01:02:37;;;;;;;31.15;23.67;;;10.40;99.90;;;;;;6276990;22;20241;-90
2022/09/27 01:05:11;;;;;;;28.92;24.05;;;10.30;99.90;;;;;;6301870;22;20157;-89
2022/09/27 01:07:41;;;;;;;28.02;22.40;;;10.10;99.90;;;;;;6254209;22;20170;-90
2022/09/27 01:10:09;;;;;;;32.95;23.90;;;10.30;99.90;;;;;;6278366;22;20169;-89
2022/09/27 01:12:58;;;;;;;32.95;24.85;;;10.10;99.90;;;;;;6275082;22;20177;-89
2022/09/27 01:15:45;;;;;;;37.47;25.10;;;10.20;99.90;;;;;;6272509;22;20165;-88
2022/09/27 01:18:49;;;;;;;36.13;25.38;;;10.10;99.90;;;;;;6267631;22;20193;-90
2022/09/27 01:21:36;;;;;;;34.03;26.45;;;9.80;99.90;;;;;;6262211;22;20184;-87
2022/09/27 01:24:21;;;;;;;30.33;25.70;;;9.60;99.90;;;;;;6257297;23;20161;-90
2022/09/27 01:27:36;;;;;;;39.70;27.05;;;9.60;99.90;;;;;;6242586;22;20203;-91
2022/09/27 01:33:16;;;;;;;33.83;26.90;;;10.00;99.90;;;;;;6258515;22;20219;-90
2022/09/27 01:36:12;;;;;;;33.58;26.00;;;10.00;99.90;;;;;;6266000;22;20208;-86
2022/09/27 01:39:06;;;;;;;34.15;24.77;;;9.80;99.90;;;;;;6263690;23;20216;-89
2022/09/27 01:41:45;;;;;;;36.85;25.75;;;9.60;99.90;;;;;;6258503;23;20177;-92
2022/09/27 01:47:00;;;;;;;33.50;26.02;;;9.50;99.90;;;;;;6265929;22;20268;-90
2022/09/27 01:49:49;;;;;;;36.67;26.38;;;9.50;99.90;;;;;;6262013;23;20539;-90
2022/09/27 01:52:21;;;;;;;30.27;25.92;;;9.60;99.90;;;;;;6235379;23;20166;-91
2022/09/27 01:54:53;;;;;;;33.38;25.63;;;9.60;99.90;;;;;;6228067;23;20177;-88
2022/09/27 01:57:31;;;;;;;37.42;27.92;;;9.70;99.90;;;;;;6228365;23;20168;-88
2022/09/27 02:00:03;;;;;;;34.90;27.20;;;9.60;99.90;;;;;;6253861;23;20186;-87
2022/09/27 02:02:52;;;;;;;33.67;25.85;;;9.40;99.90;;;;;;6227793;23;20181;-87
2022/09/27 02:05:29;;;;;;;33.08;26.65;;;9.40;99.90;;;;;;6228846;23;20162;-85
2022/09/27 02:08:01;;;;;;;38.50;25.70;;;9.50;99.90;;;;;;6227516;23;20185;-83
2022/09/27 02:10:41;;;;;;;32.00;24.67;;;9.40;99.90;;;;;;6254466;23;20167;-87
2022/09/27 02:13:31;;;;;;;29.70;24.88;;;9.30;99.90;;;;;;6231634;23;20472;-89
2022/09/27 02:16:36;;;;;;;34.55;25.75;;;9.30;99.90;;;;;;6267398;22;20184;-90
2022/09/27 02:19:29;;;;;;;38.50;26.10;;;9.20;99.90;;;;;;6271037;22;20184;-90
2022/09/27 02:22:11;;;;;;;31.60;23.30;;;9.30;99.90;;;;;;6257547;22;20165;-89
2022/09/27 02:24:53;;;;;;;31.83;24.63;;;9.40;99.90;;;;;;6245755;23;20182;-89
2022/09/27 02:28:09;;;;;;;33.35;24.50;;;9.50;99.90;;;;;;6242762;23;20238;-87
2022/09/27 02:30:37;;;;;;;33.92;25.50;;;9.50;99.90;;;;;;6271268;22;20211;-88
2022/09/27 02:33:04;;;;;;;31.00;25.45;;;9.50;99.90;;;;;;6271172;22;20189;-88
2022/09/27 02:35:33;;;;;;;30.63;23.02;;;9.40;99.90;;;;;;6237759;23;20249;-89
2022/09/27 02:38:01;;;;;;;28.88;22.38;;;9.50;99.90;;;;;;6262292;23;20200;-87
2022/09/27 02:40:34;;;;;;;30.50;23.48;;;9.50;99.90;;;;;;6257336;23;20201;-88
2022/09/27 02:43:08;;;;;;;29.05;21.30;;;9.60;99.90;;;;;;6234266;23;20220;-90
2022/09/27 02:45:54;;;;;;;29.33;21.88;;;9.60;99.90;;;;;;6259399;22;20543;-89
2022/09/27 02:49:00;;;;;;;31.35;23.00;;;9.70;99.90;;;;;;6260682;23;20168;-90
2022/09/27 02:51:36;;;;;;;25.25;20.90;;;9.70;99.90;;;;;;6233290;23;20170;-88
2022/09/27 02:54:40;;;;;;;27.48;21.98;;;9.70;99.90;;;;;;6261131;23;20212;-88
2022/09/27 02:57:28;;;;;;;27.23;21.60;;;9.70;99.90;;;;;;6151945;23;20227;-89
2022/09/27 03:00:14;;;;;;;28.20;22.15;;;9.70;99.90;;;;;;6258781;23;20206;-89
2022/09/27 03:02:54;;;;;;;31.17;21.58;;;9.80;99.90;;;;;;6259434;23;20177;-88
2022/09/27 03:05:26;;;;;;;32.88;25.50;;;9.90;99.90;;;;;;6259216;23;20193;-89
2022/09/27 03:07:53;;;;;;;29.92;22.17;;;9.90;99.90;;;;;;6270421;22;20196;-88
2022/09/27 03:10:25;;;;;;;34.65;22.92;;;9.90;99.90;;;;;;6274607;22;20162;-90
2022/09/27 03:12:53;;;;;;;29.45;23.42;;;9.70;99.90;;;;;;6273730;22;20200;-86
2022/09/27 03:15:22;;;;;;;24.63;20.38;;;9.70;99.90;;;;;;6273453;22;20165;-86
2022/09/27 03:17:49;;;;;;;27.48;21.67;;;9.60;99.90;;;;;;6264461;22;20190;-87
2022/09/27 03:20:17;;;;;;;29.63;22.90;;;9.50;99.90;;;;;;6273181;22;20239;-85
2022/09/27 03:22:45;;;;;;;28.10;22.25;;;9.60;99.90;;;;;;6273008;22;20191;-88
2022/09/27 03:25:16;;;;;;;28.73;22.27;;;9.60;99.90;;;;;;6272962;22;20216;-86
2022/09/27 03:27:44;;;;;;;27.38;23.67;;;9.70;99.90;;;;;;6273994;22;20166;-88
2022/09/27 03:30:13;;;;;;;28.98;20.40;;;9.60;99.90;;;;;;6272955;22;20190;-84
2022/09/27 03:32:44;;;;;;;30.65;22.48;;;9.60;99.90;;;;;;6272731;22;20208;-86
2022/09/27 03:35:12;;;;;;;27.77;22.88;;;9.60;99.90;;;;;;6247194;22;20189;-90
2022/09/27 03:37:41;;;;;;;25.77;20.63;;;9.50;99.90;;;;;;6271748;22;20176;-92
2022/09/27 03:40:09;;;;;;;26.65;20.02;;;9.60;99.90;;;;;;6273460;22;20189;-88
2022/09/27 03:42:38;;;;;;;27.48;21.42;;;9.50;99.90;;;;;;6272724;22;20189;-88
2022/09/27 03:45:05;;;;;;;27.42;20.52;;;9.40;99.90;;;;;;6272113;22;20245;-84
2022/09/27 03:47:32;;;;;;;30.48;20.20;;;9.50;99.90;;;;;;6271190;22;20170;-86
2022/09/27 03:49:59;;;;;;;26.30;20.45;;;9.50;99.90;;;;;;6269759;23;20174;-83
2022/09/27 03:52:26;;;;;;;23.20;19.30;;;9.60;99.90;;;;;;6270762;23;20181;-85
2022/09/27 03:54:56;;;;;;;23.90;19.25;;;9.70;99.90;;;;;;6270272;22;20186;-83
2022/09/27 03:57:29;;;;;;;33.38;25.15;;;9.80;99.90;;;;;;6268373;22;20193;-85
2022/09/27 04:00:02;;;;;;;26.30;20.40;;;9.80;99.90;;;;;;6273419;22;20265;-84
2022/09/27 04:02:30;;;;;;;27.48;22.05;;;9.90;99.90;;;;;;6272635;22;20197;-86
2022/09/27 04:04:57;;;;;;;23.88;20.60;;;10.10;99.90;;;;;;6274057;22;20205;-91
2022/09/27 04:07:25;;;;;;;23.15;19.80;;;10.00;99.90;;;;;;6301205;22;20200;-90
2022/09/27 04:09:52;;;;;;;23.63;18.42;;;10.00;99.90;;;;;;6301834;22;20179;-92
2022/09/27 04:12:25;;;;;;;25.02;18.92;;;9.90;99.90;;;;;;6299772;22;20180;-88
2022/09/27 04:14:54;;;;;;;22.48;17.95;;;10.00;99.90;;;;;;6300657;22;20162;-89
2022/09/27 04:17:21;;;;;;;24.10;18.23;;;10.00;99.90;;;;;;6300964;22;20157;-89
2022/09/27 04:19:56;;;;;;;22.38;19.98;;;10.10;99.90;;;;;;6299634;22;20228;-88
2022/09/27 04:22:23;;;;;;;24.15;20.10;;;10.10;99.90;;;;;;6298465;22;20168;-88
2022/09/27 04:24:52;;;;;;;20.75;18.63;;;10.00;99.90;;;;;;6298777;22;20165;-90
2022/09/27 04:27:22;;;;;;;26.00;20.50;;;10.10;99.90;;;;;;6298517;22;20246;-87
2022/09/27 04:29:51;;;;;;;24.00;18.55;;;10.10;99.90;;;;;;6298075;22;20191;-87
2022/09/27 04:32:18;;;;;;;21.88;19.20;;;10.00;99.90;;;;;;6302855;22;20177;-89
2022/09/27 04:37:31;;;;;;;21.50;18.98;;;10.10;99.90;;;;;;6300546;22;20168;-87
2022/09/27 04:40:04;;;;;;;21.02;18.15;;;10.10;99.90;;;;;;6298193;22;20223;-88
2022/09/27 04:42:34;;;;;;;21.95;18.90;;;10.00;99.90;;;;;;6288582;22;20170;-86
2022/09/27 04:45:02;;;;;;;19.98;16.27;;;10.10;99.90;;;;;;6278613;22;20228;-87
2022/09/27 04:47:28;;;;;;;21.50;18.60;;;10.00;99.90;;;;;;6282045;22;20212;-84
2022/09/27 04:49:55;;;;;;;30.25;18.25;;;9.90;99.90;;;;;;6281862;22;20193;-86
2022/09/27 04:52:23;;;;;;;21.88;18.00;;;10.10;99.90;;;;;;6282896;22;20614;-86
2022/09/27 04:54:50;;;;;;;20.13;17.92;;;10.20;99.90;;;;;;6306551;22;20189;-84
2022/09/27 04:57:17;;;;;;;29.33;22.42;;;10.10;99.90;;;;;;6288500;22;20177;-90
2022/09/27 04:59:44;;;;;;;22.83;19.38;;;10.20;99.90;;;;;;6285923;22;20205;-90
2022/09/27 05:02:11;;;;;;;22.63;17.70;;;10.10;99.90;;;;;;6288317;22;20244;-91
2022/09/27 05:04:38;;;;;;;23.20;18.98;;;10.20;99.90;;;;;;6288836;22;20188;-87
2022/09/27 05:07:05;;;;;;;26.00;20.83;;;10.10;99.90;;;;;;6286218;22;20484;-89
2022/09/27 05:09:34;;;;;;;21.83;18.60;;;10.10;99.90;;;;;;6293482;22;20173;-84
2022/09/27 05:12:02;;;;;;;22.25;17.75;;;10.10;99.90;;;;;;6297315;22;20169;-90
2022/09/27 05:14:28;;;;;;;20.02;16.15;;;10.10;99.90;;;;;;6315473;22;20181;-86
2022/09/27 05:16:56;;;;;;;19.80;17.42;;;10.00;99.90;;;;;;6283129;22;20187;-82
2022/09/27 05:19:23;;;;;;;25.42;19.60;;;10.00;99.90;;;;;;6279628;22;20225;-86
2022/09/27 05:21:50;;;;;;;24.27;19.42;;;10.00;99.90;;;;;;6280824;22;20235;-83
2022/09/27 05:24:17;;;;;;;23.63;18.20;;;10.10;99.90;;;;;;6280749;22;20184;-83
2022/09/27 05:26:45;;;;;;;23.00;18.60;;;10.00;99.90;;;;;;6280752;22;20210;-83
2022/09/27 05:29:12;;;;;;;21.88;19.67;;;10.00;99.90;;;;;;6304161;22;20184;-86
2022/09/27 05:31:39;;;;;;;23.50;20.23;;;10.00;99.90;;;;;;6284190;22;20192;-89
2022/09/27 05:34:08;;;;;;;23.85;18.73;;;10.00;99.90;;;;;;6278658;22;20181;-85
2022/09/27 05:36:37;;;;;;;20.95;17.13;;;10.10;99.90;;;;;;6280934;22;20185;-87
2022/09/27 05:39:06;;;;;;;27.55;20.40;;;10.00;99.90;;;;;;6277758;22;20182;-84
2022/09/27 05:41:33;;;;;;;24.42;20.52;;;10.10;99.90;;;;;;6282000;22;20189;-85
2022/09/27 05:44:00;;;;;;;23.25;20.08;;;10.00;99.90;;;;;;6280910;22;20209;-91
2022/09/27 05:46:27;;;;;;;24.95;18.83;;;10.10;99.90;;;;;;6280315;22;20264;-85
2022/09/27 05:48:54;;;;;;;23.80;19.20;;;10.20;99.90;;;;;;6285657;22;20363;-86
2022/09/27 05:51:20;;;;;;;24.05;18.88;;;10.10;99.90;;;;;;6311709;22;20185;-86
2022/09/27 05:53:48;;;;;;;28.55;19.60;;;10.20;99.90;;;;;;6287226;22;20177;-87
2022/09/27 05:56:14;;;;;;;18.48;16.58;;;10.20;99.90;;;;;;6290285;22;20220;-89
2022/09/27 05:58:42;;;;;;;23.83;19.38;;;10.20;99.90;;;;;;6310170;22;20371;-84
2022/09/27 06:01:09;;;;;;;25.40;19.80;;;10.30;99.90;;;;;;6306625;22;20215;-88
2022/09/27 06:03:36;;;;;;;18.98;16.23;;;10.30;99.90;;;;;;6283743;22;20368;-84
2022/09/27 06:06:06;;;;;;;20.25;17.17;;;10.30;99.90;;;;;;6284758;22;20544;-86
2022/09/27 06:11:12;;;;;;;20.15;16.38;;;10.30;99.90;;;;;;6292124;22;20363;-85
2022/09/27 06:13:39;;;;;;;20.90;15.50;;;10.50;99.90;;;;;;6294028;22;20195;-87
2022/09/27 06:16:10;;;;;;;22.35;16.80;;;10.60;99.90;;;;;;6294639;22;20196;-86
2022/09/27 06:18:37;;;;;;;20.85;17.50;;;10.70;99.90;;;;;;6262018;22;20197;-86
2022/09/27 06:21:05;;;;;;;19.52;17.08;;;10.90;99.90;;;;;;6259078;22;20220;-87
2022/09/27 06:23:32;;;;;;;21.90;18.10;;;11.20;99.90;;;;;;6268417;22;20170;-86
2022/09/27 06:28:35;;;;;;;29.67;16.45;;;11.50;99.90;;;;;;6220534;22;20196;-89
2022/09/27 06:31:05;;;;;;;19.35;17.27;;;11.60;99.90;;;;;;6122912;22;21550;-84
2022/09/27 06:33:32;;;;;;;24.13;17.75;;;11.80;99.90;;;;;;6262143;23;20229;-87
2022/09/27 06:36:07;;;;;;;18.00;14.63;;;11.80;99.90;;;;;;6260171;22;20232;-87
2022/09/27 06:38:34;;;;;;;20.33;16.77;;;11.60;99.90;;;;;;6258069;22;20260;-86
2022/09/27 06:41:05;;;;;;;18.42;14.25;;;11.60;99.90;;;;;;6257160;22;20206;-84
2022/09/27 06:43:33;;;;;;;18.73;15.40;;;11.50;99.90;;;;;;6259239;22;20193;-83
2022/09/27 06:46:04;;;;;;;16.88;13.85;;;11.30;99.90;;;;;;6254985;22;20192;-84
2022/09/27 06:48:32;;;;;;;25.50;17.63;;;11.10;99.90;;;;;;6254511;22;20172;-86
2022/09/27 06:50:59;;;;;;;20.20;15.07;;;11.00;99.90;;;;;;6252621;22;20187;-87
2022/09/27 06:53:28;;;;;;;18.33;15.35;;;10.60;99.90;;;;;;6261829;22;20216;-86
2022/09/27 06:56:00;;;;;;;19.95;16.23;;;10.70;99.90;;;;;;6266260;22;20178;-82
2022/09/27 07:01:13;;;;;;;19.30;16.15;;;10.80;99.90;;;;;;6252984;22;20209;-87
2022/09/27 07:03:42;;;;;;;16.77;14.20;;;10.80;99.90;;;;;;6251499;23;20186;-85
2022/09/27 07:06:21;;;;;;;20.77;15.88;;;10.80;99.90;;;;;;6252896;23;20571;-84
2022/09/27 07:08:50;;;;;;;20.58;17.45;;;10.90;99.90;;;;;;6267267;23;20155;-81
2022/09/27 07:11:18;;;;;;;19.90;16.13;;;10.80;99.90;;;;;;6265364;22;20170;-83
2022/09/27 07:13:44;;;;;;;19.48;16.25;;;10.90;99.90;;;;;;6266055;22;20182;-83
2022/09/27 07:16:13;;;;;;;18.33;14.95;;;11.00;99.90;;;;;;6262802;22;20181;-82
2022/09/27 07:18:41;;;;;;;19.98;15.57;;;11.00;99.90;;;;;;6288587;22;20186;-84
2022/09/27 07:21:08;;;;;;;20.23;16.60;;;11.20;99.90;;;;;;6263877;22;20194;-84
2022/09/27 07:23:36;;;;;;;21.33;15.73;;;11.10;99.90;;;;;;6256241;22;20186;-83
2022/09/27 07:26:05;;;;;;;17.88;14.45;;;11.10;99.90;;;;;;6250840;22;20400;-85
2022/09/27 07:28:33;;;;;;;16.50;14.68;;;10.90;99.90;;;;;;6250024;22;20509;-87
2022/09/27 07:31:02;;;;;;;23.65;16.30;;;10.90;99.90;;;;;;6258994;22;20235;-83
2022/09/27 07:33:30;;;;;;;23.73;15.57;;;10.90;99.90;;;;;;6262822;22;20163;-82
2022/09/27 07:35:57;;;;;;;20.30;15.73;;;11.00;99.90;;;;;;6265233;22;20171;-80
2022/09/27 07:38:23;;;;;;;22.25;15.90;;;11.20;99.90;;;;;;6264711;23;20238;-83
2022/09/27 07:40:50;;;;;;;17.77;15.15;;;11.40;99.90;;;;;;6262740;22;20245;-85
2022/09/27 07:43:18;;;;;;;18.95;15.25;;;11.30;99.90;;;;;;6251120;23;20366;-84
2022/09/27 07:45:45;;;;;;;22.05;16.65;;;11.30;99.90;;;;;;6254266;22;20249;-85
2022/09/27 07:50:43;;;;;;;17.35;15.15;;;11.90;99.90;;;;;;6226672;23;20245;-84
2022/09/27 07:53:12;;;;;;;20.98;15.40;;;11.90;99.90;;;;;;6234229;23;20423;-85
2022/09/27 07:55:41;;;;;;;18.02;15.77;;;11.70;99.90;;;;;;6230516;23;20543;-85
2022/09/27 07:58:12;;;;;;;18.77;14.98;;;11.60;99.90;;;;;;6226688;23;20183;-85
2022/09/27 08:00:41;;;;;;;19.45;14.27;;;11.60;99.90;;;;;;6203791;23;20191;-88
2022/09/27 08:03:12;;;;;;;20.73;15.95;;;11.60;99.90;;;;;;6201159;23;20520;-82
2022/09/27 08:05:40;;;;;;;20.38;15.27;;;11.50;99.90;;;;;;6203530;23;20154;-86
2022/09/27 08:08:07;;;;;;;18.40;14.10;;;11.50;99.90;;;;;;6226161;23;20174;-83
2022/09/27 08:10:34;;;;;;;16.85;15.05;;;11.50;99.90;;;;;;6200486;23;20180;-87
2022/09/27 08:13:03;;;;;;;20.20;14.85;;;11.50;99.90;;;;;;6229600;23;20184;-85
2022/09/27 08:15:34;;;;;;;17.27;14.13;;;11.90;99.90;;;;;;6222837;23;20187;-86
2022/09/27 08:18:03;;;;;;;16.85;14.52;;;12.00;99.90;;;;;;6229192;23;20206;-86
2022/09/27 08:20:30;;;;;;;16.35;13.30;;;12.00;99.90;;;;;;6203676;23;20199;-86
2022/09/27 08:23:03;;;;;;;18.98;15.02;;;12.00;99.90;;;;;;6228725;23;20164;-89
2022/09/27 08:25:30;;;;;;;15.30;13.70;;;11.90;99.90;;;;;;6201148;23;20184;-86
2022/09/27 08:27:59;;;;;;;17.98;13.98;;;12.00;99.90;;;;;;6230111;23;20218;-85
2022/09/27 08:30:27;;;;;;;17.63;13.98;;;12.30;99.90;;;;;;6226557;23;20183;-85
2022/09/27 08:32:56;;;;;;;17.25;13.52;;;12.20;99.90;;;;;;6230729;23;20203;-88
2022/09/27 08:35:24;;;;;;;15.90;13.18;;;12.50;99.90;;;;;;6228336;23;20188;-86
2022/09/27 08:37:55;;;;;;;17.20;13.80;;;12.40;99.90;;;;;;6223876;23;20176;-84
2022/09/27 08:40:29;;;;;;;15.60;12.88;;;12.10;99.90;;;;;;6228033;23;20207;-87
2022/09/27 08:43:18;;;;;;;18.70;13.82;;;12.00;99.90;;;;;;6231508;23;20171;-87
2022/09/27 08:46:12;;;;;;;16.65;14.00;;;12.00;99.90;;;;;;6237283;23;20164;-87
2022/09/27 08:48:39;;;;;;;19.23;15.63;;;12.10;99.90;;;;;;6205700;23;20553;-83
2022/09/27 08:51:12;;;;;;;17.13;14.98;;;12.10;99.90;;;;;;6225436;23;20226;-89
2022/09/27 08:53:45;;;;;;;18.77;13.18;;;12.20;99.90;;;;;;6225490;23;20251;-87
2022/09/27 08:56:19;;;;;;;18.70;13.07;;;12.30;99.90;;;;;;6222856;23;20383;-87
2022/09/27 08:58:58;;;;;;;18.88;13.05;;;12.50;99.90;;;;;;6224992;23;20178;-86
2022/09/27 09:01:26;;;;;;;15.60;13.15;;;12.80;99.90;;;;;;6225217;23;20568;-88
2022/09/27 09:04:03;;;;;;;19.80;15.38;;;12.90;99.90;;;;;;6201604;23;20178;-87
2022/09/27 09:07:17;;;;;;;14.82;12.48;;;12.80;99.90;;;;;;6226694;23;20173;-87
2022/09/27 09:09:51;;;;;;;18.10;16.23;;;12.70;99.90;;;;;;6160442;23;20210;-86
2022/09/27 09:12:46;;;;;;;20.27;13.90;;;12.90;99.90;;;;;;6213559;23;20160;-85
2022/09/27 09:15:20;;;;;;;15.52;12.25;;;13.00;99.90;;;;;;6241279;23;20175;-82
2022/09/27 09:18:10;;;;;;;15.73;12.80;;;12.90;99.90;;;;;;6214601;23;20182;-84
2022/09/27 09:20:57;;;;;;;15.73;12.80;;;12.80;99.90;;;;;;6241158;23;20183;-84
2022/09/27 09:23:40;;;;;;;17.08;12.68;;;12.80;99.90;;;;;;6233387;23;20179;-85
2022/09/27 09:26:24;;;;;;;15.32;11.95;;;12.90;99.90;;;;;;6231202;23;20198;-84
2022/09/27 09:29:17;;;;;;;13.48;12.07;;;13.10;99.90;;;;;;6227781;23;20171;-86
2022/09/27 09:32:08;;;;;;;14.50;12.98;;;13.20;99.90;;;;;;6228848;23;20179;-85
2022/09/27 09:34:41;;;;;;;15.35;12.20;;;13.50;99.90;;;;;;6202330;23;20403;-86
2022/09/27 09:37:13;;;;;;;15.95;12.10;;;13.60;99.90;;;;;;6226962;23;20187;-87
2022/09/27 09:40:06;;;;;;;14.57;13.10;;;13.80;99.90;;;;;;6226335;23;20225;-85
2022/09/27 09:42:39;;;;;;;13.30;11.57;;;14.10;99.90;;;;;;6216714;23;20183;-88
2022/09/27 09:45:19;;;;;;;18.27;12.75;;;14.10;99.90;;;;;;6228535;23;20175;-85
2022/09/27 09:48:00;;;;;;;14.50;13.00;;;14.20;99.90;;;;;;6227481;23;20168;-84
2022/09/27 09:50:43;;;;;;;15.07;13.35;;;14.50;99.90;;;;;;6202338;23;20235;-86
2022/09/27 09:53:15;;;;;;;14.25;12.48;;;14.70;99.90;;;;;;6225977;23;20223;-87
2022/09/27 09:55:49;;;;;;;17.02;13.52;;;14.70;99.90;;;;;;6228316;23;20181;-85
2022/09/27 09:58:25;;;;;;;13.85;12.40;;;14.90;99.90;;;;;;6228171;23;20159;-86
2022/09/27 10:00:59;;;;;;;14.05;11.32;;;14.80;99.90;;;;;;6205054;23;20184;-86
2022/09/27 10:03:27;;;;;;;10.13;9.07;;;14.70;99.90;;;;;;6229590;23;20180;-83
2022/09/27 10:05:55;;;;;;;13.48;10.50;;;14.40;99.90;;;;;;6202766;23;20169;-86
2022/09/27 10:08:23;;;;;;;11.23;9.88;;;14.20;99.90;;;;;;6239002;23;20197;-82
2022/09/27 10:10:51;;;;;;;11.13;9.82;;;14.30;99.90;;;;;;6241219;23;20173;-86
2022/09/27 10:13:20;;;;;;;9.88;8.98;;;14.20;99.90;;;;;;6243265;23;20208;-81
2022/09/27 10:16:06;;;;;;;10.30;9.25;;;14.20;99.90;;;;;;6235026;23;20179;-85
2022/09/27 10:18:37;;;;;;;12.25;9.93;;;14.10;99.90;;;;;;6227316;23;20161;-86
2022/09/27 10:21:10;;;;;;;11.30;10.07;;;14.10;99.90;;;;;;6225673;23;20182;-83
2022/09/27 10:24:08;;;;;;;12.38;9.60;;;14.40;99.90;;;;;;6227013;23;20171;-86
2022/09/27 10:26:46;;;;;;;10.75;9.48;;;14.30;99.90;;;;;;6201309;23;20488;-85
2022/09/27 10:29:23;;;;;;;12.93;11.32;;;14.50;99.90;;;;;;6226467;23;20181;-85
2022/09/27 10:31:51;;;;;;;11.02;9.90;;;14.80;99.90;;;;;;6225304;23;20217;-86
2022/09/27 10:34:37;;;;;;;12.55;10.57;;;14.60;99.90;;;;;;6225264;23;20192;-84
2022/09/27 10:37:23;;;;;;;23.65;17.02;;;14.50;99.90;;;;;;6198807;23;20284;-85
2022/09/27 10:39:52;;;;;;;12.82;11.20;;;14.40;99.90;;;;;;6226425;23;20183;-86
2022/09/27 10:42:35;;;;;;;14.13;12.25;;;14.80;99.90;;;;;;6226591;23;20210;-86
2022/09/27 10:45:30;;;;;;;18.35;14.30;;;15.10;99.90;;;;;;6202920;23;20220;-85
2022/09/27 10:48:01;;;;;;;12.70;11.40;;;15.10;99.90;;;;;;6226500;23;20233;-86
2022/09/27 10:50:31;;;;;;;33.05;23.90;;;15.00;99.90;;;;;;6229213;23;20277;-86
2022/09/27 10:53:21;;;;;;;12.00;10.52;;;14.90;99.90;;;;;;6228040;23;20543;-85
2022/09/27 10:55:50;;;;;;;13.82;11.52;;;15.00;99.90;;;;;;6226617;23;20220;-86
2022/09/27 10:58:30;;;;;;;14.13;10.00;;;15.20;99.90;;;;;;6231886;23;20179;-85
2022/09/27 11:01:11;;;;;;;11.83;10.63;;;15.40;99.90;;;;;;6208215;23;20438;-87
2022/09/27 11:03:48;;;;;;;11.45;10.20;;;15.10;99.90;;;;;;6228986;23;20452;-85
2022/09/27 11:06:23;;;;;;;14.07;11.53;;;14.90;99.90;;;;;;6226312;23;20252;-85
2022/09/27 11:08:52;;;;;;;14.95;11.75;;;14.70;99.90;;;;;;6226227;23;20403;-82
2022/09/27 11:11:23;;;;;;;15.57;12.83;;;14.50;99.90;;;;;;6234585;23;20170;-84
2022/09/27 11:14:16;;;;;;;14.48;12.55;;;14.40;99.90;;;;;;6238441;23;20394;-85
2022/09/27 11:17:03;;;;;;;11.88;10.68;;;14.10;99.90;;;;;;6235521;23;20224;-83
2022/09/27 11:19:51;;;;;;;21.48;17.00;;;14.10;99.90;;;;;;6233689;23;20191;-86
2022/09/27 11:22:36;;;;;;;28.48;25.60;;;14.00;99.90;;;;;;6235275;23;20201;-81
2022/09/27 11:25:41;;;;;;;17.35;14.32;;;14.10;99.90;;;;;;6235128;23;20172;-80
2022/09/27 11:28:45;;;;;;;12.65;10.55;;;14.10;99.90;;;;;;6225659;23;20456;-85
2022/09/27 11:31:42;;;;;;;13.73;11.63;;;14.20;99.90;;;;;;6225677;23;20167;-86
2022/09/27 11:34:33;;;;;;;15.05;12.43;;;14.40;99.90;;;;;;6224505;23;20223;-87
2022/09/27 11:37:06;;;;;;;12.80;11.63;;;14.70;99.90;;;;;;6223011;23;20165;-84
2022/09/27 11:39:51;;;;;;;12.15;10.93;;;14.70;99.90;;;;;;6202303;23;20504;-83
2022/09/27 11:42:43;;;;;;;14.35;11.38;;;15.00;99.90;;;;;;6224283;23;20193;-86
2022/09/27 11:45:25;;;;;;;13.05;10.27;;;15.00;99.90;;;;;;6223897;23;20175;-86
2022/09/27 11:49:09;;;;;;;14.87;11.47;;;15.30;99.90;;;;;;6222905;23;20181;-85
2022/09/27 11:51:49;;;;;;;11.40;10.20;;;15.60;99.90;;;;;;6130888;23;20426;-85
2022/09/27 11:54:51;;;;;;;11.93;10.00;;;15.90;99.90;;;;;;6220349;23;20464;-82
2022/09/27 11:57:45;;;;;;;13.50;11.33;;;15.60;99.90;;;;;;6220092;23;20387;-87
2022/09/27 12:00:31;;;;;;;12.40;10.43;;;15.80;99.90;;;;;;6221784;23;20401;-86
2022/09/27 12:03:01;;;;;;;12.23;10.80;;;15.90;99.90;;;;;;6220938;23;20405;-86
2022/09/27 12:06:11;;;;;;;14.97;10.50;;;15.80;99.90;;;;;;6223406;23;20384;-84
2022/09/27 12:09:04;;;;;;;10.97;9.43;;;16.00;99.90;;;;;;6223107;23;20451;-87
2022/09/27 12:11:57;;;;;;;13.97;12.57;;;15.80;99.90;;;;;;6225879;23;20411;-87
2022/09/27 12:14:45;;;;;;;11.23;9.77;;;15.80;99.90;;;;;;6224671;23;20381;-85
2022/09/27 12:17:26;;;;;;;8.83;7.93;;;16.00;99.90;;;;;;6225838;23;20847;-85
2022/09/27 12:19:57;;;;;;;10.40;8.70;;;16.20;99.90;;;;;;6197992;23;20434;-86
2022/09/27 12:22:34;;;;;;;9.93;8.83;;;16.50;99.90;;;;;;6224618;23;20447;-85
2022/09/27 12:25:25;;;;;;;9.73;8.83;;;16.40;99.90;;;;;;6224470;23;20389;-87
2022/09/27 12:28:33;;;;;;;9.87;9.00;;;16.40;99.90;;;;;;6227175;23;20451;-85
2022/09/27 12:31:27;;;;;;;9.10;8.13;;;16.60;99.90;;;;;;6133040;23;20494;-86
2022/09/27 12:34:34;;;;;;;8.13;7.30;;;16.50;99.90;;;;;;6165157;23;20425;-88
2022/09/27 12:37:15;;;;;;;13.50;8.47;;;16.40;99.90;;;;;;6225188;23;20971;-87
2022/09/27 12:40:09;;;;;;;7.03;6.17;;;16.10;99.90;;;;;;6199687;23;20408;-88
2022/09/27 12:43:11;;;;;;;9.97;6.70;;;15.70;99.90;;;;;;6223820;23;20455;-84
2022/09/27 12:45:58;;;;;;;6.93;6.23;;;15.70;99.90;;;;;;6224825;23;20404;-86
2022/09/27 12:48:45;;;;;;;9.07;7.40;;;15.70;99.90;;;;;;6199301;23;20366;-86
2022/09/27 12:51:22;;;;;;;8.10;7.00;;;15.50;99.90;;;;;;6224145;23;20549;-89
2022/09/27 12:54:15;;;;;;;8.10;7.30;;;15.60;99.90;;;;;;6223055;23;20463;-87
2022/09/27 12:57:20;;;;;;;7.23;6.50;;;15.50;99.90;;;;;;6225713;23;20384;-86
2022/09/27 13:00:19;;;;;;;9.43;8.17;;;15.40;99.90;;;;;;6222318;23;20379;-85
2022/09/27 13:02:55;;;;;;;8.67;7.33;;;15.40;99.90;;;;;;6224046;23;20497;-85
2022/09/27 13:06:46;;;;;;;9.63;8.63;;;15.40;99.90;;;;;;6224894;23;20587;-88
2022/09/27 13:09:26;;;;;;;8.30;7.20;;;15.30;99.90;;;;;;6044774;23;20416;-88
2022/09/27 13:12:18;;;;;;;11.40;10.30;;;15.20;99.90;;;;;;6074160;23;20521;-86
2022/09/27 13:14:59;;;;;;;8.57;7.40;;;15.20;99.90;;;;;;6199129;23;20412;-87
2022/09/27 13:17:49;;;;;;;8.17;7.47;;;15.40;99.90;;;;;;6227266;23;20413;-88
2022/09/27 13:20:34;;;;;;;12.70;11.50;;;15.30;99.90;;;;;;6203099;23;20381;-87
2022/09/27 13:23:21;;;;;;;8.97;8.10;;;15.20;99.90;;;;;;6200372;23;20390;-86
2022/09/27 13:26:19;;;;;;;8.77;7.80;;;15.30;99.90;;;;;;6197467;23;20372;-86
2022/09/27 13:29:02;;;;;;;9.60;8.60;;;15.60;99.90;;;;;;6222873;23;20407;-86
2022/09/27 13:31:57;;;;;;;7.80;7.10;;;15.80;99.90;;;;;;6225749;23;20405;-87
2022/09/27 13:34:42;;;;;;;9.03;7.37;;;15.70;99.90;;;;;;6224820;23;20436;-84
2022/09/27 13:37:27;;;;;;;10.23;9.00;;;15.60;99.90;;;;;;6225265;23;20785;-88